Fairport, NY (14450)

12:53 PM EST on February 27, 2015 (GMT -0500)
APRSWXNET Fairport NY US | Change Station
CLOSE
Current Station
Personal Weather Station
Location: Fairport, NY
Elevation: 600 ft
Nearby Weather Stations

Elev 600 ft 43.11 °N, 77.41 °W | Updated 20 minutes ago

Partly Cloudy
Partly Cloudy
14 °F
Feels Like 5 °F
N
6
Wind Variable Wind from NW
Gusts 14.0 mph

Today
High -- | Low -- °F
--% Chance of Precip.
Yesterday
High -- | Low -- °F
Precip. -- in
6:49 AM 5:56 PM
Waxing Gibbous, 70% visible
Pressure 30.53 in
Visibility 10.0 miles
Clouds Scattered Clouds 3200 ft
Windchill 5 °F
Dew Point 4 °F
Humidity 64%
Rainfall 0.00 in
Snow Depth Not available.
UV 4 out of 12
Pollen .50 out of 12
Air Quality Not available.
Flu Activity Not available.
METAR KROC 271654Z 27010KT 10SM SCT032 M11/M18 A3048 RMK AO2 SLP337 SCT V BKN T11111183

More Conditions Fewer Conditions

Pressure 30.53 in
Visibility 10.0 miles
Clouds Scattered Clouds 3200 ft
Windchill 5 °F
Dew Point 4 °F
Humidity 64%
Rainfall 0.00 in
Snow Depth Not available.
UV 4 out of 12
Pollen .50 out of 12
Air Quality Not available.
Flu Activity Not available.
METAR KROC 271654Z 27010KT 10SM SCT032 M11/M18 A3048 RMK AO2 SLP337 SCT V BKN T11111183

More Conditions Fewer Conditions

10-Day Weather Forecast

Almanac

Astronomy

Feb. 27, 2015 Rise Set
Actual Time
Civil Twilight
Nautical Twilight
Astronomical Twilight
Moon
Length of Visible Light
Length of Day
Tomorrow will be .
, % of the Moon is Illuminated

Today's Extremes

State Highs State Lows

Community

WunderPhotos

Upload Photos

1,800,758 photos uploaded!

WunderBlogs® & News

Nearby

Air Quality

  Air Quality AQ Index Pollutant
Not available.

Snow Depth

Station Depth Elevation

Earthquake Activity

City Distance Mag. Time & Date
Minimum magnitude displayed is 2.5.

Coastal Water Temperatures

Place Temperature

Nearby Weather Stations